Report METAR

 

LIRQ - Firenze, Italy
Distance from station: NNE 20km
Dati ricevuti: 19/10/2017 01:20
Sereno
Sereno
 Vento da Variabile
Vento: Variabile 2 km/h
Temperatura: 9°C
P.to Rugiada: 8°C
Umidità: 94%
Barometro: 1019 hPa
Summary: Sereno
Visibility: superiore a 10 km
2017/10/18 23:20 LIRQ 182320Z VRB01KT CAVOK 09/08 Q1019
LIRP - Pisa, Italy
Distance from station: O 55km
Dati ricevuti: 19/10/2017 01:15
Few Clouds
Few Clouds
 Vento da ESE
Vento: ESE 9 km/h
Temperatura: 10°C
Temperatura Vento: 9°C
P.to Rugiada: 10°C
Umidità: 100%
Barometro: 1018 hPa
Nuvole: Few Clouds
Visibility: 7 km
Cloud details: Few Clouds 91 m
2017/10/18 23:15 LIRP 182315Z 11005KT 7000 FEW003 10/10 Q1018 TEMPO 0500
 
LIVC - Monte Cimone, Italy
Distance from station: NNO 69km
Dati ricevuti: 18/10/2017 22:55
DATI Obsoleti
Sereno
Sereno
 Vento da S
Vento: S 9 km/h, Raffica: 28 km/h
Temperatura: 8°C
Temperatura Vento: 6°C
P.to Rugiada: -6°C
Umidità: 37%
Barometro: 1024 hPa
Summary: Sereno
Visibility: superiore a 10 km
2017/10/18 20:55 LIVC 182055Z 19005G15KT CAVOK 08/M06 Q1024
LIRS - Grosseto, Italy
Distance from station: S 98km
Dati ricevuti: 19/10/2017 00:55
Parz. nuvoloso
Parz. nuvoloso
 Vento da N
Vento: N 9 km/h
Temperatura: 15°C
P.to Rugiada: 12°C
Umidità: 82%
Barometro: 1019 hPa
Nuvole: Parz. nuvoloso
Visibility: 7 km
Cloud details: Parz. nuvoloso 457 m
2017/10/18 22:55 LIRS 182255Z 01005KT 7000 SCT015 15/12 Q1019